createdAt,value
2022-12-26T00:02:04.614Z,9.13
2022-12-26T00:04:51.149Z,8.95
2022-12-26T00:07:21.275Z,9.10
2022-12-26T00:09:49.074Z,8.90
2022-12-26T00:12:16.672Z,8.75
2022-12-26T00:14:44.233Z,9.23
2022-12-26T00:17:11.831Z,10.15
2022-12-26T00:19:39.549Z,10.65
2022-12-26T00:22:07.188Z,8.80
2022-12-26T00:24:36.232Z,8.60
2022-12-26T00:27:03.858Z,8.82
2022-12-26T00:29:31.682Z,9.05
2022-12-26T00:31:59.297Z,9.00
2022-12-26T00:34:26.968Z,8.00
2022-12-26T00:36:54.554Z,9.05
2022-12-26T00:39:22.158Z,8.93
2022-12-26T00:41:51.158Z,8.63
2022-12-26T00:44:18.777Z,8.60
2022-12-26T00:46:46.363Z,9.07
2022-12-26T00:49:14.026Z,8.70
2022-12-26T00:51:41.607Z,8.75
2022-12-26T00:54:09.212Z,9.20
2022-12-26T00:56:36.826Z,9.43
2022-12-26T00:59:05.770Z,8.93
2022-12-26T01:01:34.034Z,8.80
2022-12-26T01:04:01.780Z,9.70
2022-12-26T01:06:29.414Z,8.88
2022-12-26T01:08:56.993Z,9.10
2022-12-26T01:11:38.492Z,8.65
2022-12-26T01:14:08.298Z,6.57
2022-12-26T01:16:35.987Z,8.93
2022-12-26T01:19:03.653Z,8.65
2022-12-26T01:21:31.255Z,8.80
2022-12-26T01:23:58.840Z,9.07
2022-12-26T01:26:26.468Z,10.45
2022-12-26T01:28:54.263Z,9.20
2022-12-26T01:31:23.691Z,9.68
2022-12-26T01:33:51.642Z,9.93
2022-12-26T01:36:19.427Z,9.88
2022-12-26T01:38:47.289Z,9.02
2022-12-26T01:41:19.629Z,9.23
2022-12-26T01:43:57.073Z,8.77
2022-12-26T01:46:30.490Z,8.50
2022-12-26T01:49:00.694Z,8.70
2022-12-26T01:51:30.580Z,8.90
2022-12-26T01:54:40.773Z,9.02
2022-12-26T01:56:48.363Z,8.93
2022-12-26T01:59:19.474Z,8.82
2022-12-26T02:01:49.855Z,9.85
2022-12-26T02:04:39.347Z,9.35
2022-12-26T02:07:07.043Z,8.65
2022-12-26T02:09:34.792Z,8.35
2022-12-26T02:12:35.918Z,9.02
2022-12-26T02:14:53.269Z,8.57
2022-12-26T02:17:22.218Z,8.60
2022-12-26T02:19:53.862Z,8.65
2022-12-26T02:22:50.995Z,8.35
2022-12-26T02:25:29.409Z,8.32
2022-12-26T02:28:11.739Z,8.10
2022-12-26T02:33:41.248Z,7.65
2022-12-26T02:36:37.170Z,8.60
2022-12-26T02:39:44.723Z,7.50
2022-12-26T02:42:07.112Z,7.72
2022-12-26T02:44:56.095Z,8.27
2022-12-26T02:47:30.466Z,7.45
2022-12-26T02:50:21.200Z,7.45
2022-12-26T02:53:16.120Z,7.35
2022-12-26T02:56:03.471Z,6.72
2022-12-26T02:58:52.179Z,7.03
2022-12-26T03:01:42.145Z,7.43
2022-12-26T03:04:31.538Z,8.38
2022-12-26T03:07:18.725Z,6.95
2022-12-26T03:10:03.985Z,6.68
2022-12-26T03:12:55.311Z,7.20
2022-12-26T03:15:23.677Z,6.90
2022-12-26T03:17:53.070Z,7.05
2022-12-26T03:20:24.518Z,6.80
2022-12-26T03:22:55.508Z,7.68
2022-12-26T03:25:43.915Z,7.00
2022-12-26T03:28:13.920Z,6.70
2022-12-26T03:30:50.082Z,6.78
2022-12-26T03:33:35.786Z,7.03
2022-12-26T03:36:06.181Z,6.63
2022-12-26T03:38:36.276Z,7.90
2022-12-26T03:41:25.603Z,7.38
2022-12-26T03:44:21.030Z,7.30
2022-12-26T03:47:14.832Z,7.05
2022-12-26T03:50:03.195Z,7.32
2022-12-26T03:52:55.983Z,7.38
2022-12-26T03:55:45.049Z,7.00
2022-12-26T03:58:32.793Z,7.75
2022-12-26T04:01:18.624Z,7.30
2022-12-26T04:04:04.970Z,7.03
2022-12-26T04:06:52.973Z,7.43
2022-12-26T04:09:42.774Z,7.18
2022-12-26T04:12:30.100Z,7.30
2022-12-26T04:15:18.005Z,7.28
2022-12-26T04:18:08.700Z,8.10
2022-12-26T04:20:40.917Z,6.88
2022-12-26T04:23:29.818Z,7.30
2022-12-26T04:26:19.725Z,7.25
2022-12-26T04:29:05.069Z,6.85
2022-12-26T04:31:52.877Z,7.63
2022-12-26T04:34:42.574Z,7.28
2022-12-26T04:37:32.347Z,7.40
2022-12-26T04:40:18.251Z,7.20
2022-12-26T04:43:49.424Z,7.13
2022-12-26T04:45:53.613Z,7.22
2022-12-26T04:48:39.089Z,7.40
2022-12-26T04:51:06.926Z,7.47
2022-12-26T04:53:34.483Z,7.75
2022-12-26T04:56:02.151Z,7.70
2022-12-26T04:58:31.133Z,7.22
2022-12-26T05:01:19.011Z,6.93
2022-12-26T05:04:04.198Z,7.07
2022-12-26T05:06:49.501Z,7.68
2022-12-26T05:09:39.569Z,7.20
2022-12-26T05:12:09.220Z,7.53
2022-12-26T05:14:38.239Z,7.47
2022-12-26T05:17:24.718Z,7.03
2022-12-26T05:20:10.092Z,7.20
2022-12-26T05:22:56.946Z,7.20
2022-12-26T05:25:44.391Z,6.85
2022-12-26T05:28:30.495Z,7.82
2022-12-26T05:30:59.738Z,7.70
2022-12-26T05:33:44.946Z,7.60
2022-12-26T05:36:12.612Z,7.82
2022-12-26T05:38:40.344Z,7.50
2022-12-26T05:41:08.024Z,7.57
2022-12-26T05:43:35.612Z,7.25
2022-12-26T05:46:04.731Z,7.72
2022-12-26T05:48:32.490Z,7.15
2022-12-26T05:51:00.809Z,7.60
2022-12-26T05:53:28.839Z,7.30
2022-12-26T05:55:56.457Z,7.15
2022-12-26T05:58:24.016Z,7.30
2022-12-26T06:00:51.690Z,7.45
2022-12-26T06:03:20.723Z,7.95
2022-12-26T06:05:48.377Z,7.50
2022-12-26T06:08:15.985Z,7.35
2022-12-26T06:10:43.558Z,7.50
2022-12-26T06:13:11.214Z,7.60
2022-12-26T06:15:39.530Z,7.40
2022-12-26T06:18:07.230Z,8.32
2022-12-26T06:20:36.120Z,8.50
2022-12-26T06:23:03.712Z,7.78
2022-12-26T06:25:31.341Z,8.32
2022-12-26T06:27:59.057Z,8.10
2022-12-26T06:30:26.626Z,8.55
2022-12-26T06:32:54.243Z,7.82
2022-12-26T06:35:22.462Z,7.88
2022-12-26T06:37:51.499Z,8.05
2022-12-26T06:40:19.107Z,8.70
2022-12-26T06:42:46.672Z,8.18
2022-12-26T06:45:14.301Z,7.78
2022-12-26T06:47:41.881Z,8.00
2022-12-26T06:50:10.370Z,7.80
2022-12-26T06:52:37.942Z,8.05
2022-12-26T06:55:07.636Z,7.97
2022-12-26T06:57:35.199Z,8.43
2022-12-26T07:00:02.961Z,8.00
2022-12-26T07:02:30.635Z,7.75
2022-12-26T07:04:58.301Z,7.82
2022-12-26T07:07:25.876Z,7.95
2022-12-26T07:09:53.505Z,7.45
2022-12-26T07:12:22.478Z,7.63
2022-12-26T07:14:50.131Z,7.93
2022-12-26T07:17:17.747Z,8.40
2022-12-26T07:19:45.366Z,8.45
2022-12-26T07:22:12.915Z,8.32
2022-12-26T07:24:40.471Z,7.57
2022-12-26T07:27:08.071Z,8.35
2022-12-26T07:29:37.027Z,8.00
2022-12-26T07:32:04.750Z,8.23
2022-12-26T07:34:32.426Z,8.35
2022-12-26T07:37:00.026Z,8.60
2022-12-26T07:39:27.607Z,9.30
2022-12-26T07:42:01.139Z,8.55
2022-12-26T07:44:30.280Z,7.68
2022-12-26T07:47:00.372Z,8.10
2022-12-26T07:49:28.236Z,8.50
2022-12-26T07:51:55.938Z,8.57
2022-12-26T07:54:23.648Z,8.20
2022-12-26T07:56:51.291Z,8.20
2022-12-26T07:59:19.179Z,8.20
2022-12-26T08:01:46.988Z,8.65
2022-12-26T08:04:16.085Z,8.77
2022-12-26T08:06:43.845Z,8.10
2022-12-26T08:09:15.782Z,8.18
2022-12-26T08:11:44.055Z,8.73
2022-12-26T08:14:12.240Z,8.00
2022-12-26T08:16:40.025Z,8.05
2022-12-26T08:19:07.685Z,8.25
2022-12-26T08:21:36.646Z,7.97
2022-12-26T08:24:04.461Z,8.82
2022-12-26T08:26:32.037Z,8.30
2022-12-26T08:28:59.618Z,8.35
2022-12-26T08:31:27.190Z,8.02
2022-12-26T08:33:57.108Z,8.00
2022-12-26T08:36:24.845Z,8.57
2022-12-26T08:38:54.062Z,9.32
2022-12-26T08:41:21.717Z,8.63
2022-12-26T08:44:25.681Z,8.43
2022-12-26T08:46:38.036Z,8.38
2022-12-26T08:49:05.668Z,8.52
2022-12-26T08:51:33.270Z,8.70
2022-12-26T08:54:02.492Z,9.10
2022-12-26T08:56:30.134Z,8.63
2022-12-26T08:58:58.030Z,9.20
2022-12-26T09:01:27.273Z,8.52
2022-12-26T09:03:55.584Z,9.02
2022-12-26T09:06:23.583Z,8.35
2022-12-26T09:08:51.630Z,9.48
2022-12-26T09:11:22.761Z,8.27
2022-12-26T09:13:50.489Z,8.43
2022-12-26T09:16:20.527Z,8.30
2022-12-26T09:18:48.998Z,8.85
2022-12-26T09:21:17.347Z,8.90
2022-12-26T09:23:45.056Z,9.60
2022-12-26T09:26:14.383Z,8.63
2022-12-26T09:28:43.937Z,8.38
2022-12-26T09:31:14.426Z,8.88
2022-12-26T09:33:42.109Z,8.95
2022-12-26T09:36:14.844Z,9.35
2022-12-26T09:38:42.956Z,9.10
2022-12-26T09:41:26.517Z,9.07
2022-12-26T09:44:02.011Z,8.48
2022-12-26T09:46:33.730Z,8.50
2022-12-26T09:49:04.581Z,8.73
2022-12-26T09:51:34.694Z,8.82
2022-12-26T09:54:04.067Z,8.90
2022-12-26T09:59:26.096Z,9.82
2022-12-26T10:01:54.671Z,8.75
2022-12-26T10:04:28.920Z,8.40
2022-12-26T10:07:04.529Z,8.50
2022-12-26T10:09:45.468Z,8.65
2022-12-26T10:12:26.428Z,8.63
2022-12-26T10:14:59.658Z,8.68
2022-12-26T10:17:34.216Z,8.75
2022-12-26T10:20:13.470Z,9.57
2022-12-26T10:23:14.351Z,8.70
2022-12-26T10:25:46.763Z,10.02
2022-12-26T10:28:20.092Z,9.07
2022-12-26T10:30:49.970Z,9.00
2022-12-26T10:33:21.507Z,9.27
2022-12-26T10:35:49.294Z,9.45
2022-12-26T10:38:25.816Z,8.80
2022-12-26T10:40:57.945Z,9.25
2022-12-26T10:43:29.522Z,8.82
2022-12-26T10:47:00.273Z,9.23
2022-12-26T10:49:28.881Z,8.60
2022-12-26T10:51:58.206Z,9.18
2022-12-26T10:54:26.054Z,9.15
2022-12-26T10:56:54.833Z,9.38
2022-12-26T10:59:24.693Z,9.30
2022-12-26T11:01:54.021Z,8.98
2022-12-26T11:04:52.885Z,9.35
2022-12-26T11:07:13.110Z,8.95
2022-12-26T11:09:42.719Z,9.38
2022-12-26T11:12:21.322Z,10.55
2022-12-26T11:14:49.313Z,9.70
2022-12-26T11:17:28.966Z,9.32
2022-12-26T11:20:23.937Z,9.80
2022-12-26T11:22:51.978Z,9.48
2022-12-26T11:25:22.916Z,9.38
2022-12-26T11:27:52.934Z,9.50
2022-12-26T11:30:24.347Z,9.20
2022-12-26T11:33:13.501Z,9.65
2022-12-26T11:35:48.968Z,9.15
2022-12-26T11:38:39.151Z,8.98
2022-12-26T11:41:31.147Z,8.95
2022-12-26T11:44:01.386Z,9.63
2022-12-26T11:46:37.950Z,8.75
2022-12-26T11:49:08.064Z,9.25
2022-12-26T11:51:40.463Z,9.02
2022-12-26T11:54:26.836Z,9.40
2022-12-26T11:57:22.274Z,9.20
2022-12-26T11:59:51.338Z,9.57
2022-12-26T12:02:25.169Z,8.98
2022-12-26T12:04:56.719Z,9.50
2022-12-26T12:07:36.311Z,9.38
2022-12-26T12:10:09.054Z,8.98
2022-12-26T12:12:42.321Z,9.35
2022-12-26T12:15:13.817Z,9.85
2022-12-26T12:17:46.260Z,9.57
2022-12-26T12:20:30.484Z,9.63
2022-12-26T12:23:11.005Z,9.65
2022-12-26T12:25:49.251Z,9.85
2022-12-26T12:28:32.189Z,9.68
2022-12-26T12:31:04.695Z,9.77
2022-12-26T12:33:42.592Z,9.95
2022-12-26T12:36:14.350Z,9.32
2022-12-26T12:38:56.375Z,9.20
2022-12-26T12:43:59.093Z,9.55
2022-12-26T12:46:34.909Z,10.10
2022-12-26T12:49:12.572Z,9.32
2022-12-26T12:51:46.760Z,10.80
2022-12-26T12:54:39.712Z,10.57
2022-12-26T12:57:14.328Z,10.45
2022-12-26T12:59:48.957Z,9.80
2022-12-26T13:02:22.010Z,9.50
2022-12-26T13:04:54.531Z,10.45
2022-12-26T13:07:26.902Z,10.00
2022-12-26T13:09:58.353Z,10.60
2022-12-26T13:12:30.317Z,10.52
2022-12-26T13:15:00.135Z,10.15
2022-12-26T13:17:31.990Z,10.35
2022-12-26T13:20:03.029Z,10.23
2022-12-26T13:22:50.830Z,10.38
2022-12-26T13:25:19.581Z,9.98
2022-12-26T13:27:48.020Z,10.27
2022-12-26T13:30:17.916Z,10.20
2022-12-26T13:32:46.731Z,10.40
2022-12-26T13:35:51.260Z,10.60
2022-12-26T13:38:21.748Z,10.38
2022-12-26T13:40:52.709Z,10.38
2022-12-26T13:43:38.954Z,10.05
2022-12-26T13:46:06.655Z,10.48
2022-12-26T13:48:58.772Z,10.45
2022-12-26T13:51:59.775Z,10.52
2022-12-26T13:54:30.061Z,10.20
2022-12-26T13:57:25.374Z,9.77
2022-12-26T14:00:09.583Z,10.10
2022-12-26T14:03:20.488Z,9.60
2022-12-26T14:06:25.912Z,10.07
2022-12-26T14:09:05.849Z,9.88
2022-12-26T14:11:46.617Z,10.20
2022-12-26T14:14:26.870Z,10.90
2022-12-26T14:16:57.680Z,11.20
2022-12-26T14:19:41.154Z,10.15
2022-12-26T14:22:14.217Z,12.43
2022-12-26T14:24:49.584Z,11.10
2022-12-26T14:27:35.591Z,10.35
2022-12-26T14:30:21.996Z,9.80
2022-12-26T14:33:01.764Z,9.02
2022-12-26T14:35:33.341Z,9.02
2022-12-26T14:38:10.805Z,9.73
2022-12-26T14:40:39.806Z,9.98
2022-12-26T14:43:29.262Z,9.10
2022-12-26T14:45:58.100Z,8.77
2022-12-26T14:48:50.771Z,10.13
2022-12-26T14:51:31.815Z,10.60
2022-12-26T14:54:38.647Z,10.43
2022-12-26T14:57:45.754Z,11.07
2022-12-26T15:00:33.716Z,18.45
2022-12-26T15:03:33.578Z,8.90
2022-12-26T15:06:34.020Z,17.15
2022-12-26T15:09:13.481Z,17.60
2022-12-26T15:12:05.568Z,10.50
2022-12-26T15:15:00.577Z,9.00
2022-12-26T15:17:36.982Z,9.80
2022-12-26T15:20:38.808Z,8.27
2022-12-26T15:23:58.681Z,8.40
2022-12-26T15:26:42.763Z,8.45
2022-12-26T15:29:22.259Z,14.27
2022-12-26T15:31:57.417Z,11.25
2022-12-26T15:34:43.355Z,12.48
2022-12-26T15:37:21.696Z,9.00
2022-12-26T15:39:53.304Z,8.75
2022-12-26T15:42:32.638Z,8.40
2022-12-26T15:45:13.216Z,8.60
2022-12-26T15:47:47.055Z,10.57
2022-12-26T15:50:25.597Z,9.23
2022-12-26T15:53:02.768Z,7.20
2022-12-26T15:56:03.833Z,8.15
2022-12-26T15:58:52.226Z,9.45
2022-12-26T16:01:36.433Z,9.10
2022-12-26T16:04:05.778Z,8.40
2022-12-26T16:06:47.689Z,7.40
2022-12-26T16:09:25.519Z,7.75
2022-12-26T16:11:55.613Z,7.50
2022-12-26T16:14:29.445Z,7.88
2022-12-26T16:17:11.113Z,8.13
2022-12-26T16:19:40.838Z,8.15
2022-12-26T16:22:46.724Z,7.80
2022-12-26T16:25:16.960Z,7.57
2022-12-26T16:27:45.135Z,7.65
2022-12-26T16:30:17.385Z,7.70
2022-12-26T16:32:45.833Z,8.00
2022-12-26T16:35:20.845Z,8.95
2022-12-26T16:37:51.222Z,8.85
2022-12-26T16:40:30.641Z,7.63
2022-12-26T16:43:01.968Z,8.65
2022-12-26T16:45:32.631Z,7.97
2022-12-26T16:48:00.549Z,8.57
2022-12-26T16:50:30.006Z,8.52
2022-12-26T16:53:09.952Z,9.68
2022-12-26T16:55:41.944Z,8.73
2022-12-26T16:58:19.615Z,10.20
2022-12-26T17:01:04.896Z,7.63
2022-12-26T17:03:39.811Z,8.05
2022-12-26T17:06:10.314Z,7.85
2022-12-26T17:08:44.036Z,7.80
2022-12-26T17:11:11.753Z,7.47
2022-12-26T17:13:39.471Z,8.18
2022-12-26T17:16:10.612Z,7.93
2022-12-26T17:18:47.375Z,7.57
2022-12-26T17:21:23.864Z,8.45
2022-12-26T17:24:24.776Z,7.72
2022-12-26T17:27:11.021Z,7.63
2022-12-26T17:29:50.416Z,7.95
2022-12-26T17:32:25.493Z,7.05
2022-12-26T17:34:53.194Z,7.63
2022-12-26T17:37:23.430Z,7.13
2022-12-26T17:40:03.280Z,7.32
2022-12-26T17:42:31.973Z,7.00
2022-12-26T17:44:59.625Z,6.82
2022-12-26T17:47:28.682Z,6.60
2022-12-26T17:49:56.910Z,6.85
2022-12-26T17:52:26.224Z,7.20
2022-12-26T17:54:54.269Z,6.78
2022-12-26T17:57:25.838Z,7.07
2022-12-26T17:59:54.384Z,7.35
2022-12-26T18:02:22.525Z,6.53
2022-12-26T18:04:51.065Z,6.70
2022-12-26T18:07:24.301Z,6.90
2022-12-26T18:09:56.397Z,6.93
2022-12-26T18:12:25.301Z,6.75
2022-12-26T18:14:57.692Z,7.63
2022-12-26T18:17:30.281Z,6.55
2022-12-26T18:19:57.875Z,7.32
2022-12-26T18:22:25.561Z,6.80
2022-12-26T18:24:53.160Z,6.85
2022-12-26T18:27:23.906Z,7.60
2022-12-26T18:29:53.238Z,9.10
2022-12-26T18:32:24.854Z,8.23
2022-12-26T18:34:53.270Z,7.32
2022-12-26T18:37:21.423Z,6.93
2022-12-26T18:39:49.236Z,7.55
2022-12-26T18:42:17.640Z,6.60
2022-12-26T18:44:45.509Z,7.10
2022-12-26T18:47:16.135Z,6.93
2022-12-26T18:49:43.752Z,7.10
2022-12-26T18:52:12.005Z,6.75
2022-12-26T18:54:45.104Z,7.30
2022-12-26T18:57:17.202Z,8.25
2022-12-26T19:02:17.714Z,7.28
2022-12-26T19:04:46.490Z,7.18
2022-12-26T19:07:14.092Z,7.45
2022-12-26T19:09:44.285Z,6.75
2022-12-26T19:12:12.098Z,6.90
2022-12-26T19:14:39.703Z,6.50
2022-12-26T19:17:07.396Z,6.70
2022-12-26T19:19:36.344Z,7.30
2022-12-26T19:22:04.038Z,7.50
2022-12-26T19:24:31.827Z,7.13
2022-12-26T19:26:59.387Z,6.80
2022-12-26T19:29:27.039Z,8.20
2022-12-26T19:31:56.244Z,7.40
2022-12-26T19:34:24.235Z,12.13
2022-12-26T19:36:53.153Z,9.52
2022-12-26T19:39:20.978Z,7.07
2022-12-26T19:41:48.685Z,7.65
2022-12-26T19:44:16.398Z,6.97
2022-12-26T19:46:43.982Z,6.60
2022-12-26T19:49:11.564Z,6.95
2022-12-26T19:51:39.157Z,6.70
2022-12-26T19:54:08.150Z,6.60
2022-12-26T19:56:35.765Z,6.55
2022-12-26T19:59:03.371Z,6.50
2022-12-26T20:01:32.903Z,6.93
2022-12-26T20:04:02.282Z,7.22
2022-12-26T20:06:32.290Z,7.18
2022-12-26T20:09:01.765Z,7.00
2022-12-26T20:11:32.866Z,6.78
2022-12-26T20:14:00.614Z,6.82
2022-12-26T20:19:16.677Z,7.20
2022-12-26T20:21:44.267Z,7.13
2022-12-26T20:24:12.651Z,7.65
2022-12-26T20:26:42.307Z,6.85
2022-12-26T20:29:10.284Z,7.22
2022-12-26T20:31:39.147Z,6.13
2022-12-26T20:34:07.509Z,6.78
2022-12-26T20:36:36.600Z,6.93
2022-12-26T20:39:07.547Z,8.20
2022-12-26T20:41:35.343Z,7.05
2022-12-26T20:44:04.522Z,6.50
2022-12-26T20:46:33.424Z,6.97
2022-12-26T20:49:02.301Z,7.82
2022-12-26T20:51:36.944Z,7.43
2022-12-26T20:54:06.098Z,6.80
2022-12-26T20:56:33.920Z,7.28
2022-12-26T20:59:01.497Z,6.50
2022-12-26T21:01:30.764Z,6.57
2022-12-26T21:03:59.341Z,6.47
2022-12-26T21:06:29.431Z,6.63
2022-12-26T21:08:57.748Z,6.72
2022-12-26T21:11:27.655Z,6.60
2022-12-26T21:13:58.949Z,6.78
2022-12-26T21:16:28.727Z,6.70
2022-12-26T21:18:58.284Z,6.63
2022-12-26T21:21:27.578Z,6.55
2022-12-26T21:23:59.706Z,6.50
2022-12-26T21:28:59.768Z,7.10
2022-12-26T21:31:28.280Z,6.63
2022-12-26T21:33:57.801Z,6.30
2022-12-26T21:36:26.181Z,12.57
2022-12-26T21:38:54.011Z,6.93
2022-12-26T21:41:22.118Z,6.43
2022-12-26T21:43:49.734Z,6.30
2022-12-26T21:46:18.880Z,6.53
2022-12-26T21:48:47.934Z,6.63
2022-12-26T21:51:17.496Z,6.65
2022-12-26T21:53:45.631Z,6.32
2022-12-26T21:56:14.139Z,6.40
2022-12-26T21:58:56.118Z,6.40
2022-12-26T22:01:25.527Z,6.45
2022-12-26T22:04:11.338Z,6.65
2022-12-26T22:06:41.071Z,6.47
2022-12-26T22:09:09.433Z,6.43
2022-12-26T22:11:54.833Z,6.43
2022-12-26T22:14:22.875Z,6.18
2022-12-26T22:16:52.357Z,5.97
2022-12-26T22:19:19.982Z,6.18
2022-12-26T22:21:48.850Z,5.95
2022-12-26T22:24:16.410Z,6.68
2022-12-26T22:26:44.168Z,6.80
2022-12-26T22:29:11.810Z,6.38
2022-12-26T22:31:39.623Z,6.07
2022-12-26T22:34:09.230Z,6.10
2022-12-26T22:36:36.920Z,6.32
2022-12-26T22:39:06.192Z,6.78
2022-12-26T22:41:34.271Z,6.68
2022-12-26T22:44:01.852Z,6.32
2022-12-26T22:46:29.601Z,6.70
2022-12-26T22:48:57.326Z,6.50
2022-12-26T22:51:26.390Z,7.20
2022-12-26T22:53:54.750Z,6.10
2022-12-26T22:56:23.673Z,6.93
2022-12-26T22:58:53.495Z,7.57
2022-12-26T23:01:21.517Z,6.90
2022-12-26T23:03:49.201Z,8.30
2022-12-26T23:06:19.435Z,10.45
2022-12-26T23:08:47.448Z,7.43
2022-12-26T23:11:15.768Z,8.27
2022-12-26T23:13:45.089Z,9.43
2022-12-26T23:16:26.375Z,7.22
2022-12-26T23:19:14.599Z,7.50
2022-12-26T23:21:43.140Z,6.43
2022-12-26T23:24:15.774Z,6.40
2022-12-26T23:26:46.289Z,6.25
2022-12-26T23:29:34.738Z,6.55
2022-12-26T23:32:02.940Z,6.70
2022-12-26T23:34:30.754Z,6.93
2022-12-26T23:36:58.407Z,6.95
2022-12-26T23:39:26.270Z,7.28
2022-12-26T23:41:53.937Z,6.82
2022-12-26T23:44:23.162Z,6.63
2022-12-26T23:46:50.882Z,6.50
2022-12-26T23:49:18.698Z,6.60
2022-12-26T23:51:46.359Z,6.22
2022-12-26T23:54:14.062Z,6.00
2022-12-26T23:56:41.976Z,5.80
2022-12-26T23:59:09.617Z,6.18
